Time;durP1;ratioP1;P1;durP2;ratioP2;P2;SDS_P1;SDS_P2;PMS_P1;PMS_P2;Temp;Humidity;BMP_temperature;BMP_pressure;BME280_temperature;BME280_humidity;BME280_pressure;Samples;Min_cycle;Max_cycle;Signal;HPM_P1;HPM_P2
2022/12/23 00:00:21;;;;;;;7.40;5.35;;;10.20;67.00;;;9.11;66.79;100101.28;12255716;19;20334;-83
2022/12/23 00:04:23;;;;;;;7.60;5.32;;;10.30;67.10;;;9.13;66.83;100105.47;12253623;19;20039;-82
2022/12/23 00:08:26;;;;;;;6.10;5.10;;;10.30;67.10;;;9.02;66.52;100074.00;12248587;19;20378;-83
2022/12/23 00:16:49;;;;;;;8.45;5.30;;;10.30;67.00;;;8.89;66.71;100050.44;12247803;19;20021;-83
2022/12/23 00:20:58;;;;;;;6.82;5.00;;;10.30;66.90;;;9.06;66.80;100076.31;12253507;19;20010;-82
2022/12/23 00:25:00;;;;;;;7.43;4.93;;;10.30;67.00;;;9.03;66.69;100070.47;12251497;19;20387;-83
2022/12/23 00:29:02;;;;;;;6.13;4.95;;;10.30;66.90;;;8.82;66.62;100033.50;12250375;19;20048;-82
2022/12/23 00:33:04;;;;;;;5.68;4.72;;;10.30;66.80;;;8.80;66.59;100023.22;12250417;19;20014;-82
2022/12/23 00:37:06;;;;;;;6.05;4.57;;;10.20;66.80;;;8.97;66.75;100047.41;12251035;19;20025;-82
2022/12/23 00:45:37;;;;;;;4.97;4.05;;;10.20;66.50;;;8.98;66.69;100059.47;12252079;19;20018;-82
2022/12/23 00:49:42;;;;;;;5.97;4.40;;;10.20;66.30;;;8.85;66.68;100041.13;12250702;19;20007;-82
2022/12/23 00:53:44;;;;;;;3.95;3.50;;;10.10;66.10;;;8.86;66.75;100046.25;12251616;19;20612;-82
2022/12/23 00:57:45;;;;;;;4.50;3.80;;;10.10;66.00;;;8.88;66.51;100058.34;12247808;19;20019;-82
2022/12/23 01:06:07;;;;;;;4.47;3.58;;;10.00;66.00;;;8.77;66.73;100043.34;12250717;19;20086;-82
2022/12/23 01:10:09;;;;;;;4.90;3.58;;;10.00;66.00;;;8.76;66.67;100047.72;12251491;19;20003;-82
2022/12/23 01:14:12;;;;;;;4.32;3.63;;;10.00;66.10;;;8.69;66.68;100030.78;12250577;19;20076;-82
2022/12/23 01:18:14;;;;;;;3.80;3.30;;;9.90;66.20;;;8.71;66.60;100035.91;12247367;19;20025;-82
2022/12/23 01:22:16;;;;;;;5.50;3.60;;;9.90;66.30;;;8.68;66.73;100028.28;12248736;19;20027;-82
2022/12/23 01:26:17;;;;;;;4.35;3.95;;;9.90;66.50;;;8.68;66.52;100028.28;12248412;19;20453;-82
2022/12/23 01:30:19;;;;;;;6.07;4.70;;;9.90;66.60;;;8.71;66.66;100033.31;12249155;19;20022;-82
2022/12/23 01:34:21;;;;;;;6.13;4.75;;;9.90;66.80;;;8.74;66.75;100031.34;12247390;19;20027;-82
2022/12/23 01:38:23;;;;;;;5.90;4.68;;;9.90;66.80;;;8.67;66.62;100024.84;12247560;19;20019;-82
2022/12/23 01:42:44;;;;;;;6.57;4.88;;;9.90;66.90;;;8.76;66.72;100029.50;12247840;19;20010;-82
2022/12/23 01:46:46;;;;;;;6.20;5.07;;;9.90;67.20;;;8.62;66.73;100003.47;12247565;19;22265;-82
2022/12/23 01:51:02;;;;;;;8.50;5.63;;;9.90;67.20;;;8.58;66.64;99997.56;12243914;19;20013;-82
2022/12/23 01:55:04;;;;;;;8.90;5.03;;;9.90;67.20;;;8.77;66.60;100025.97;12246165;19;20023;-82
2022/12/23 02:03:41;;;;;;;6.72;4.78;;;10.00;67.20;;;8.73;66.72;100023.66;12244330;19;20357;-82
2022/12/23 02:03:41;;;;;;;8.38;5.55;;;10.00;67.30;;;8.66;66.72;99999.72;12245624;19;20442;-82
2022/12/23 02:12:33;;;;;;;8.68;6.10;;;10.00;67.40;;;8.78;66.77;100009.44;12241649;19;20051;-82
2022/12/23 02:16:52;;;;;;;9.45;6.28;;;10.00;67.30;;;8.71;66.74;100009.88;12246307;19;20018;-82
2022/12/23 02:21:27;;;;;;;7.22;5.15;;;10.00;67.40;;;8.76;66.72;100008.69;12244495;19;20021;-82
2022/12/23 02:25:41;;;;;;;7.13;5.45;;;10.00;67.50;;;8.79;66.94;100003.28;12246087;19;20010;-82
2022/12/23 02:30:24;;;;;;;6.53;4.80;;;10.00;67.50;;;8.68;66.64;99977.06;12245618;19;20469;-82
2022/12/23 02:35:01;;;;;;;6.60;5.10;;;10.00;67.60;;;8.70;66.87;99985.63;12245621;19;20464;-82
2022/12/23 02:39:34;;;;;;;7.03;4.65;;;10.00;67.60;;;8.80;66.79;99984.16;12246363;19;20021;-82
2022/12/23 02:43:49;;;;;;;7.60;4.80;;;10.00;67.50;;;8.81;66.93;99988.41;12257171;19;20405;-82
2022/12/23 02:48:26;;;;;;;5.70;4.43;;;10.10;67.40;;;8.75;66.92;99960.16;12255793;19;20013;-82
2022/12/23 02:52:34;;;;;;;;;;;10.10;67.30;;;8.75;66.71;99954.09;12258436;19;20006;-82
2022/12/23 02:56:42;;;;;;;4.50;3.05;;;10.10;67.30;;;8.58;66.73;99934.28;12254877;19;19934;-82
2022/12/23 03:00:45;;;;;;;5.30;3.60;;;10.00;66.90;;;8.64;66.90;99944.31;12254830;19;20015;-82
2022/12/23 03:04:47;;;;;;;6.20;4.45;;;10.00;66.90;;;8.69;66.85;99946.66;12254146;19;20015;-83
2022/12/23 03:08:51;;;;;;;4.72;3.83;;;10.00;67.00;;;8.56;66.82;99924.00;12253552;19;20018;-82
2022/12/23 03:13:05;;;;;;;6.65;4.75;;;10.00;67.00;;;8.67;66.77;99932.91;12256682;19;20452;-82
2022/12/23 03:17:53;;;;;;;5.80;4.07;;;10.00;67.10;;;8.66;66.84;99937.28;12251839;19;20010;-82
2022/12/23 03:22:20;;;;;;;5.43;4.03;;;10.00;67.20;;;8.72;66.77;99942.13;12253217;19;20014;-82
2022/12/23 03:26:39;;;;;;;6.15;4.25;;;9.90;67.20;;;8.68;66.89;99938.03;12255828;19;20014;-82
2022/12/23 03:30:51;;;;;;;5.28;4.13;;;10.00;67.30;;;8.68;66.86;99932.81;12252763;19;20047;-82
2022/12/23 03:34:58;;;;;;;4.43;3.50;;;10.00;67.30;;;8.61;66.93;99910.69;12253178;19;20031;-82
2022/12/23 03:39:04;;;;;;;5.22;4.22;;;10.10;67.40;;;8.24;66.87;99834.84;12251431;19;20043;-82
2022/12/23 03:43:27;;;;;;;4.72;3.88;;;10.00;67.30;;;8.68;66.99;99913.78;12253496;19;20381;-82
2022/12/23 03:47:53;;;;;;;5.88;4.05;;;10.00;67.30;;;8.70;66.95;99925.75;12252734;19;20025;-82
2022/12/23 03:52:06;;;;;;;6.55;4.30;;;10.00;67.50;;;8.51;66.65;99883.56;12248992;19;20038;-82
2022/12/23 03:56:53;;;;;;;6.38;4.28;;;10.00;67.50;;;8.71;66.74;99901.41;12250685;19;20018;-82
2022/12/23 04:01:02;;;;;;;5.25;3.92;;;10.00;67.40;;;8.73;66.79;99902.16;12250929;19;20534;-82
2022/12/23 04:05:30;;;;;;;5.70;4.40;;;10.00;67.40;;;8.75;66.69;99907.25;12253863;19;20027;-82
2022/12/23 04:09:33;;;;;;;7.50;4.63;;;10.00;67.40;;;8.78;66.86;99907.91;12253598;19;20028;-82
2022/12/23 04:13:35;;;;;;;5.70;4.20;;;10.00;67.40;;;8.69;66.94;99884.19;12251373;19;20460;-82
2022/12/23 04:17:37;;;;;;;6.50;4.72;;;10.10;67.60;;;8.68;66.95;99883.38;12248252;19;20056;-82
2022/12/23 04:21:39;;;;;;;6.38;4.65;;;10.00;67.60;;;8.54;66.94;99852.97;12252089;19;20133;-82
2022/12/23 04:25:41;;;;;;;4.70;4.10;;;10.00;67.60;;;8.77;67.04;99890.59;12251001;19;20022;-82
2022/12/23 04:29:43;;;;;;;7.53;5.10;;;10.00;67.60;;;8.77;67.06;99879.34;12251832;19;20542;-82
2022/12/23 04:33:45;;;;;;;5.72;4.32;;;10.10;67.70;;;8.77;66.92;99882.78;12253188;19;20009;-82
2022/12/23 04:37:47;;;;;;;7.03;4.47;;;10.00;67.70;;;8.69;66.96;99866.81;12248193;19;20011;-82
2022/12/23 04:41:49;;;;;;;6.15;4.25;;;10.00;67.80;;;8.73;67.01;99868.31;12252151;19;20015;-82
2022/12/23 04:45:51;;;;;;;8.23;5.30;;;10.10;67.90;;;8.75;66.99;99869.06;12250684;19;20086;-82
2022/12/23 04:49:53;;;;;;;7.07;4.72;;;10.10;68.00;;;8.84;66.98;99878.88;12249620;19;20472;-82
2022/12/23 04:53:54;;;;;;;6.35;5.20;;;10.30;68.10;;;8.83;67.05;99866.81;12252678;19;20532;-82
2022/12/23 04:57:56;;;;;;;8.10;5.90;;;10.10;67.90;;;8.77;67.09;99864.56;12251155;19;20359;-82
2022/12/23 05:01:58;;;;;;;8.57;5.22;;;10.10;67.90;;;8.85;67.04;99862.31;12249427;19;20078;-82
2022/12/23 05:06:00;;;;;;;8.52;5.30;;;10.10;68.00;;;8.85;67.08;99866.69;12250912;19;20074;-82
2022/12/23 05:10:02;;;;;;;7.53;5.20;;;10.10;68.10;;;8.88;67.09;99876.09;12251332;19;20459;-82
2022/12/23 05:14:04;;;;;;;7.05;5.07;;;10.10;68.00;;;8.92;66.91;99888.00;12247509;19;20029;-82
2022/12/23 05:18:06;;;;;;;6.30;4.28;;;10.10;68.70;;;8.91;67.01;99875.91;12249638;19;20347;-83
2022/12/23 05:22:07;;;;;;;6.15;3.97;;;10.10;67.90;;;8.86;66.92;99874.44;12249597;19;20018;-83
2022/12/23 05:26:10;;;;;;;6.55;4.47;;;10.10;67.90;;;8.85;66.98;99874.50;12248421;19;20038;-83
2022/12/23 05:30:12;;;;;;;7.35;4.60;;;10.10;67.90;;;8.91;67.04;99888.91;12246512;19;20010;-83
2022/12/23 05:34:13;;;;;;;6.18;4.30;;;10.10;67.90;;;8.90;67.01;99875.06;12245596;19;20018;-83
2022/12/23 05:38:15;;;;;;;5.95;4.07;;;10.20;67.90;;;8.88;67.07;99873.50;12245065;19;20367;-82
2022/12/23 05:42:18;;;;;;;4.47;3.50;;;10.20;67.80;;;8.90;66.90;99875.06;12248473;19;20037;-82
2022/12/23 05:46:20;;;;;;;4.75;3.35;;;10.20;67.80;;;8.84;66.96;99855.47;12247726;19;20025;-83
2022/12/23 05:50:22;;;;;;;5.75;4.30;;;10.10;67.80;;;8.91;66.98;99873.28;12248292;19;20014;-83
2022/12/23 05:54:24;;;;;;;5.57;4.13;;;10.20;67.90;;;8.82;67.04;99870.34;12248863;19;20014;-83
2022/12/23 05:58:26;;;;;;;6.10;3.92;;;10.20;67.90;;;8.69;66.92;99839.94;12245842;19;20504;-83
2022/12/23 06:02:28;;;;;;;5.75;3.92;;;10.20;67.90;;;8.94;67.08;99883.50;12247782;19;20014;-83
2022/12/23 06:06:30;;;;;;;4.30;3.25;;;10.20;67.70;;;8.82;67.10;99862.53;12246985;19;20026;-83
2022/12/23 06:10:32;;;;;;;4.18;3.03;;;10.20;67.60;;;8.81;66.99;99866.06;12247121;19;20029;-82
2022/12/23 06:14:34;;;;;;;4.68;2.97;;;10.20;67.70;;;8.88;66.90;99870.88;12244207;19;20014;-83
2022/12/23 06:18:36;;;;;;;4.85;3.47;;;10.20;67.70;;;8.84;67.20;99859.84;12244924;19;20025;-83
2022/12/23 06:22:38;;;;;;;6.03;4.22;;;10.20;67.60;;;8.94;67.07;99883.50;12246103;19;20018;-83
2022/12/23 06:26:41;;;;;;;5.30;3.42;;;10.20;67.70;;;8.71;67.03;99848.50;12246796;19;20022;-83
2022/12/23 06:30:43;;;;;;;6.30;4.38;;;10.40;67.70;;;8.85;67.07;99879.72;12245418;19;20011;-83
2022/12/23 06:34:45;;;;;;;7.53;4.97;;;10.20;67.60;;;8.94;67.15;99897.41;12245499;19;20006;-83
2022/12/23 06:38:47;;;;;;;5.93;4.32;;;10.20;67.70;;;8.89;67.19;99896.00;12244283;19;20413;-83
2022/12/23 06:42:49;;;;;;;6.07;4.90;;;10.20;67.80;;;8.96;67.08;99913.75;12244128;19;20775;-83
2022/12/23 06:46:50;;;;;;;7.38;5.07;;;10.20;67.90;;;8.90;67.16;99906.31;12240872;19;20078;-83
2022/12/23 06:50:52;;;;;;;5.85;4.38;;;10.30;68.10;;;8.89;67.14;99906.44;12241638;19;20476;-83
2022/12/23 06:54:54;;;;;;;7.22;4.93;;;10.30;68.20;;;8.92;67.02;99911.44;12244970;19;20473;-83
2022/12/23 06:58:55;;;;;;;6.53;4.82;;;10.30;68.40;;;8.83;67.10;99903.25;12242349;19;20035;-83
2022/12/23 07:02:57;;;;;;;6.13;5.20;;;10.30;68.40;;;8.83;67.21;99899.81;12243345;19;20011;-83
2022/12/23 07:06:59;;;;;;;7.28;4.65;;;10.30;68.50;;;9.10;67.15;99944.16;12250710;19;20464;-83
2022/12/23 07:11:02;;;;;;;6.75;5.05;;;10.30;68.60;;;9.07;67.16;99941.72;12247829;19;20015;-83
2022/12/23 07:15:05;;;;;;;5.90;4.55;;;10.40;68.70;;;9.11;67.10;99940.63;12244609;19;20029;-84
2022/12/23 07:19:06;;;;;;;7.82;4.82;;;10.40;68.80;;;9.08;67.18;99939.03;12240953;19;20009;-84
2022/12/23 07:23:08;;;;;;;7.65;5.28;;;10.40;69.10;;;8.98;67.26;99930.13;12243821;19;20025;-85
2022/12/23 07:27:10;;;;;;;5.47;4.22;;;10.40;69.40;;;9.15;67.45;99952.50;12252437;19;20464;-83
2022/12/23 07:31:12;;;;;;;8.15;5.13;;;10.50;69.60;;;9.20;67.40;99955.66;12255273;19;20025;-83
2022/12/23 07:35:16;;;;;;;9.05;4.80;;;10.60;69.90;;;9.37;67.13;99982.44;12252862;19;20018;-83
2022/12/23 07:39:18;;;;;;;7.22;4.63;;;10.60;69.90;;;9.35;67.33;99971.31;12250164;19;20036;-83
2022/12/23 07:43:20;;;;;;;8.38;4.57;;;10.70;70.20;;;9.39;67.46;99959.75;12255223;19;20007;-83
2022/12/23 07:47:22;;;;;;;6.45;5.00;;;10.70;70.20;;;9.42;67.36;99964.75;12255004;19;20417;-83
2022/12/23 07:51:24;;;;;;;6.70;4.80;;;10.80;70.40;;;9.48;67.53;99969.59;12253453;19;20048;-83
2022/12/23 07:55:26;;;;;;;5.70;4.63;;;10.80;70.50;;;9.60;67.58;99974.03;12252368;19;20034;-83
2022/12/23 07:59:28;;;;;;;6.70;4.55;;;10.90;70.60;;;9.34;67.53;99920.09;12255004;19;20018;-83
2022/12/23 08:03:30;;;;;;;6.40;4.57;;;10.90;70.60;;;9.69;67.58;99978.66;12255209;19;20074;-83
2022/12/23 08:07:31;;;;;;;7.25;4.97;;;10.90;70.60;;;9.73;67.59;99974.09;12252865;19;20015;-83
2022/12/23 08:11:33;;;;;;;6.07;4.70;;;11.00;70.80;;;9.77;67.48;99985.97;12253892;19;20372;-82
2022/12/23 08:15:35;;;;;;;7.20;4.93;;;11.00;70.80;;;9.81;67.51;99989.25;12252885;19;20007;-82
2022/12/23 08:19:37;;;;;;;7.07;4.90;;;11.10;70.80;;;9.78;67.64;99992.06;12253012;19;20435;-82
2022/12/23 08:23:40;;;;;;;7.15;4.85;;;11.10;70.80;;;9.88;67.50;100003.56;12252545;19;20018;-83
2022/12/23 08:27:42;;;;;;;6.88;4.47;;;11.10;70.90;;;9.85;67.69;99993.31;12251076;19;20015;-82
2022/12/23 08:31:44;;;;;;;7.90;5.03;;;11.20;70.80;;;9.89;67.53;99995.63;12251247;19;20374;-82
2022/12/23 08:35:46;;;;;;;5.65;4.43;;;11.20;70.80;;;9.94;67.68;99997.97;12250345;19;20010;-83
2022/12/23 08:39:47;;;;;;;7.13;4.05;;;11.20;70.70;;;9.87;67.61;99992.28;12252661;19;20014;-82
2022/12/23 08:43:50;;;;;;;7.22;5.32;;;11.20;70.80;;;9.98;67.64;100012.47;12252111;19;20013;-83
2022/12/23 08:47:52;;;;;;;6.63;4.00;;;11.30;70.90;;;9.96;67.58;100012.59;12250171;19;20047;-82
2022/12/23 08:51:54;;;;;;;7.22;4.65;;;11.30;70.80;;;10.02;67.58;100023.53;12250281;19;20006;-82
2022/12/23 08:56:00;;;;;;;6.97;4.53;;;11.30;70.80;;;9.74;67.55;99965.31;12248064;19;20035;-84
2022/12/23 09:00:02;;;;;;;5.82;4.30;;;11.40;70.80;;;10.04;67.51;100003.41;12247957;19;20010;-83
2022/12/23 09:04:06;;;;;;;7.65;4.53;;;11.40;70.70;;;10.12;67.77;100020.22;12251813;19;20114;-82
2022/12/23 09:08:08;;;;;;;6.30;4.47;;;11.40;70.60;;;10.18;67.60;100030.28;12246677;19;20014;-81
2022/12/23 09:12:10;;;;;;;5.30;3.60;;;11.40;70.60;;;10.11;67.69;100008.13;12249254;19;20961;-82
2022/12/23 09:16:13;;;;;;;7.32;4.38;;;11.50;70.60;;;10.15;67.58;100040.94;12246490;19;20105;-83
2022/12/23 09:20:15;;;;;;;8.15;4.55;;;11.50;70.40;;;10.09;67.53;100028.25;12249389;19;20071;-81
2022/12/23 09:24:17;;;;;;;8.50;5.00;;;11.50;70.50;;;10.26;67.52;100049.81;12249721;19;20014;-82
2022/12/23 09:28:19;;;;;;;7.22;3.97;;;11.50;70.40;;;10.15;67.71;100034.84;12246949;19;20030;-82
2022/12/23 09:32:21;;;;;;;6.78;4.72;;;11.60;70.60;;;10.26;67.74;100057.63;12246354;19;20007;-82
2022/12/23 09:36:23;;;;;;;8.15;4.50;;;11.50;70.50;;;10.29;67.65;100087.03;12245363;19;20010;-83
2022/12/23 09:40:31;;;;;;;6.35;4.57;;;11.50;70.40;;;10.26;67.59;100087.22;12247189;19;20132;-81
2022/12/23 09:44:46;;;;;;;8.80;4.88;;;11.50;70.40;;;10.24;67.68;100077.81;12247554;19;20018;-82
2022/12/23 09:49:00;;;;;;;5.70;3.70;;;11.50;70.30;;;10.25;67.58;100097.72;12242820;19;20010;-82
2022/12/23 09:53:17;;;;;;;7.47;4.22;;;11.50;70.30;;;10.24;67.60;100104.72;12252538;19;20014;-82
2022/12/23 09:57:37;;;;;;;6.50;4.18;;;11.50;70.90;;;10.22;67.71;100116.19;12245474;19;20014;-81
2022/12/23 10:01:56;;;;;;;5.72;3.85;;;11.50;70.30;;;10.16;67.58;100094.78;12248454;19;20015;-82
2022/12/23 10:06:19;;;;;;;5.88;3.90;;;11.50;70.30;;;10.24;67.71;100109.94;12251168;19;20112;-82
2022/12/23 10:10:40;;;;;;;6.35;3.75;;;11.50;70.40;;;10.28;67.68;100137.53;12247901;19;20011;-83
2022/12/23 10:14:45;;;;;;;5.88;3.72;;;11.50;70.30;;;10.30;67.49;100138.28;12250341;19;20035;-82
2022/12/23 10:19:13;;;;;;;5.55;4.10;;;11.60;70.40;;;10.26;67.54;100133.31;12248048;19;20019;-82
2022/12/23 10:23:26;;;;;;;7.20;4.07;;;11.60;70.40;;;9.89;67.66;100062.63;12250431;19;20370;-82
2022/12/23 10:27:37;;;;;;;6.00;4.03;;;11.60;70.30;;;10.28;67.71;100121.88;12249015;19;20015;-81
2022/12/23 10:32:01;;;;;;;8.32;4.75;;;11.60;70.40;;;10.29;67.61;100133.16;12249855;19;20015;-84
2022/12/23 10:36:36;;;;;;;5.95;4.18;;;11.60;70.40;;;10.32;67.50;100122.53;12247265;19;20035;-84
2022/12/23 10:41:04;;;;;;;6.03;3.88;;;11.60;70.50;;;10.41;67.69;100135.81;12246607;19;20014;-82
2022/12/23 10:45:48;;;;;;;4.50;3.42;;;11.60;70.40;;;10.41;67.52;100140.22;12246855;19;20011;-81
2022/12/23 10:50:10;;;;;;;5.70;3.72;;;11.70;70.50;;;10.45;67.64;100133.00;12248362;19;20007;-83
2022/12/23 10:54:32;;;;;;;7.80;4.80;;;11.70;70.40;;;10.48;67.74;100131.06;12245283;19;20018;-82
2022/12/23 10:58:39;;;;;;;5.43;3.65;;;11.60;70.20;;;10.45;67.78;100123.44;12242348;19;20007;-82
2022/12/23 11:03:07;;;;;;;5.78;3.55;;;11.70;70.40;;;10.42;67.72;100102.72;12257236;19;20014;-82
2022/12/23 11:07:29;;;;;;;6.88;4.32;;;11.70;70.40;;;10.40;67.58;100092.41;12252859;19;20575;-82
2022/12/23 11:11:53;;;;;;;8.70;4.32;;;11.70;70.40;;;10.54;67.65;100109.78;12257237;19;20031;-82
2022/12/23 11:16:27;;;;;;;5.88;4.38;;;11.70;70.40;;;10.52;67.54;100105.59;12257725;19;20560;-83
2022/12/23 11:20:29;;;;;;;5.90;4.95;;;11.80;70.40;;;10.60;67.60;100118.97;12258064;19;20365;-83
2022/12/23 11:24:31;;;;;;;8.25;5.07;;;11.80;70.30;;;10.32;67.73;100071.19;12256185;19;20018;-82
2022/12/23 11:28:49;;;;;;;7.78;5.15;;;11.80;70.30;;;10.59;67.64;100115.53;12255947;19;20030;-83
2022/12/23 11:32:51;;;;;;;7.82;4.80;;;11.80;70.30;;;10.62;67.73;100117.94;12257257;19;20017;-82
2022/12/23 11:36:59;;;;;;;9.25;5.47;;;11.90;70.40;;;10.65;67.56;100114.28;12253911;19;20015;-82
2022/12/23 11:41:03;;;;;;;8.25;5.35;;;11.90;70.40;;;10.63;67.72;100132.66;12257634;19;20013;-82
2022/12/23 11:45:07;;;;;;;8.90;6.18;;;11.90;70.30;;;10.67;67.80;100148.97;12257548;19;20038;-82
2022/12/23 11:49:19;;;;;;;8.68;6.15;;;11.90;70.20;;;10.66;67.56;100159.50;12250904;19;20077;-82
2022/12/23 11:53:24;;;;;;;9.75;6.18;;;11.90;70.20;;;10.60;67.80;100143.31;12255964;19;20006;-81
2022/12/23 11:57:46;;;;;;;8.07;6.18;;;11.90;70.20;;;10.59;67.50;100148.66;12252539;19;20070;-81
2022/12/23 12:01:48;;;;;;;9.27;6.00;;;11.90;70.20;;;10.63;67.72;100163.16;12260517;19;20018;-84
2022/12/23 12:06:18;;;;;;;10.15;6.78;;;11.90;70.30;;;10.56;67.57;100151.44;12258270;19;20034;-85
2022/12/23 12:10:34;;;;;;;8.57;6.25;;;11.90;70.30;;;10.62;67.48;100151.88;12249424;19;20324;-83
2022/12/23 12:14:50;;;;;;;8.52;6.18;;;11.80;70.10;;;10.70;67.71;100189.72;12253092;19;20011;-83
2022/12/23 12:18:56;;;;;;;9.80;6.82;;;11.90;70.10;;;10.46;67.43;100159.03;12251681;19;20011;-82
2022/12/23 12:23:05;;;;;;;8.18;5.75;;;11.90;70.20;;;10.67;67.42;100184.72;12253120;19;20006;-82
2022/12/23 12:27:10;;;;;;;9.63;6.80;;;11.90;70.10;;;10.45;67.61;100148.66;12248661;19;20412;-82
2022/12/23 12:31:37;;;;;;;8.18;6.25;;;11.90;70.10;;;10.73;67.83;100186.91;12252292;19;20010;-83
2022/12/23 12:35:50;;;;;;;8.60;5.80;;;11.90;70.30;;;10.69;67.43;100193.25;12251764;19;20048;-81
2022/12/23 12:40:00;;;;;;;8.50;5.97;;;11.90;70.10;;;10.66;67.76;100172.56;12252991;19;20018;-82
2022/12/23 12:44:42;;;;;;;7.90;6.13;;;11.90;70.00;;;10.75;67.52;100177.22;12254744;19;20039;-81
2022/12/23 12:49:04;;;;;;;9.07;6.65;;;12.00;70.20;;;10.71;67.70;100165.28;12249015;19;20007;-81
2022/12/23 12:53:18;;;;;;;7.78;6.28;;;12.00;70.10;;;10.77;67.48;100162.25;12249996;19;20082;-81
2022/12/23 12:57:22;;;;;;;8.40;6.82;;;12.00;70.10;;;10.73;67.68;100159.03;12248169;19;20012;-81
2022/12/23 13:02:06;;;;;;;8.27;6.13;;;12.00;70.10;;;10.78;67.80;100161.34;12249115;19;20054;-81
2022/12/23 13:06:27;;;;;;;12.45;5.38;;;12.00;70.20;;;10.80;67.64;100173.38;12251045;19;20011;-81
2022/12/23 13:10:56;;;;;;;7.80;6.03;;;12.00;70.10;;;10.80;67.63;100167.28;12249892;19;20014;-81
2022/12/23 13:15:46;;;;;;;6.75;5.50;;;12.00;70.10;;;10.79;67.80;100170.84;12244906;19;20015;-80
2022/12/23 13:20:02;;;;;;;8.02;5.55;;;12.00;70.10;;;10.74;67.67;100171.13;12249097;19;20018;-80
2022/12/23 13:24:49;;;;;;;7.50;5.28;;;12.20;70.10;;;10.78;67.52;100175.22;12244824;19;20019;-81
2022/12/23 13:29:46;;;;;;;8.55;5.63;;;12.00;69.90;;;10.40;67.53;100120.28;12238380;19;20025;-82
2022/12/23 13:34:02;;;;;;;8.38;5.88;;;12.00;69.90;;;10.76;67.65;100181.50;12242177;19;20018;-84
2022/12/23 13:38:49;;;;;;;7.72;5.90;;;12.00;69.80;;;10.78;67.59;100163.94;12244492;19;20018;-84
2022/12/23 13:42:58;;;;;;;7.95;5.72;;;12.00;69.90;;;10.73;67.69;100159.03;12250328;19;20074;-85
2022/12/23 13:47:29;;;;;;;8.27;5.95;;;12.00;69.80;;;10.74;67.57;100155.47;12247175;19;20010;-84
2022/12/23 13:52:13;;;;;;;8.63;6.22;;;12.00;69.80;;;10.62;67.44;100127.56;12248411;19;20015;-84
2022/12/23 13:56:39;;;;;;;9.13;6.78;;;12.00;69.90;;;10.71;67.82;100139.16;12241264;19;20018;-83
2022/12/23 14:00:42;;;;;;;10.23;6.63;;;12.00;69.80;;;10.72;67.59;100122.53;12245914;19;20066;-82
2022/12/23 14:05:05;;;;;;;9.02;6.35;;;12.00;69.50;;;10.76;67.44;100129.25;12248792;19;20396;-83
2022/12/23 14:09:11;;;;;;;9.90;6.60;;;12.00;69.60;;;10.78;67.58;100122.16;12245633;19;20022;-83
2022/12/23 14:13:16;;;;;;;9.05;7.10;;;12.00;70.10;;;10.86;67.73;100146.00;12245818;19;20018;-84
2022/12/23 14:17:43;;;;;;;8.85;6.65;;;12.20;69.60;;;10.81;67.51;100145.47;12243452;19;20014;-83
2022/12/23 14:22:28;;;;;;;10.30;7.30;;;12.10;69.40;;;10.73;67.63;100139.91;12243300;19;20015;-83
2022/12/23 14:27:04;;;;;;;7.45;6.40;;;12.00;69.30;;;10.77;67.54;100144.81;12244471;19;20015;-84
2022/12/23 14:31:27;;;;;;;9.93;7.00;;;12.00;69.10;;;10.78;67.55;100149.13;12245323;19;20501;-83
2022/12/23 14:35:53;;;;;;;7.72;6.00;;;12.20;69.10;;;10.75;67.34;100158.94;12248650;19;20022;-84
2022/12/23 14:39:57;;;;;;;9.25;6.28;;;12.00;68.70;;;10.80;67.37;100159.44;12259308;19;20021;-84
2022/12/23 14:43:58;;;;;;;7.85;5.95;;;12.00;68.70;;;10.66;67.38;100143.84;12260844;19;20022;-84
2022/12/23 14:48:21;;;;;;;6.20;5.20;;;12.00;68.60;;;10.68;67.65;100152.44;12255876;19;20353;-83
2022/12/23 14:52:45;;;;;;;6.80;5.78;;;12.00;68.70;;;10.71;67.40;100165.28;12250004;19;20018;-83
2022/12/23 14:56:50;;;;;;;6.03;5.20;;;11.90;68.70;;;10.71;67.46;100163.50;12257139;19;20011;-83
2022/12/23 15:01:13;;;;;;;6.85;5.00;;;11.90;68.70;;;10.60;67.26;100158.13;12257978;19;20347;-83
2022/12/23 15:05:22;;;;;;;6.88;5.70;;;11.90;68.70;;;10.65;67.52;100170.91;12258599;19;20018;-82
2022/12/23 15:09:37;;;;;;;5.90;4.93;;;11.90;68.70;;;10.54;67.48;100156.75;12252830;19;20017;-82
2022/12/23 15:13:39;;;;;;;5.57;4.68;;;12.00;68.80;;;10.61;67.35;100162.41;12260367;19;20113;-82
2022/12/23 15:17:40;;;;;;;5.88;4.80;;;11.90;68.70;;;10.53;67.40;100168.16;12254914;19;20019;-82
2022/12/23 15:21:42;;;;;;;7.00;5.13;;;11.80;68.70;;;10.62;67.54;100182.38;12257435;19;20362;-82
2022/12/23 15:25:47;;;;;;;6.57;4.93;;;11.80;68.60;;;10.59;67.56;100178.19;12258602;19;20342;-82
2022/12/23 15:29:52;;;;;;;5.47;4.70;;;11.80;68.50;;;10.65;67.39;100182.19;12257272;19;20358;-83
2022/12/23 15:33:56;;;;;;;5.18;3.92;;;11.80;68.50;;;10.52;67.34;100155.19;12257746;19;20524;-82
2022/12/23 15:37:59;;;;;;;5.82;4.45;;;11.80;68.50;;;10.55;67.46;100158.41;12251761;19;20014;-83
2022/12/23 15:42:01;;;;;;;6.15;4.95;;;11.80;68.40;;;10.59;67.36;100172.13;12246790;19;20023;-82
2022/12/23 15:46:23;;;;;;;6.75;5.47;;;11.80;68.10;;;10.54;67.31;100171.59;12250012;19;20035;-83
2022/12/23 15:50:24;;;;;;;5.72;4.65;;;11.80;67.80;;;10.55;67.25;100165.44;12253723;19;20014;-83
2022/12/23 15:54:33;;;;;;;4.70;4.25;;;11.80;67.40;;;10.49;67.21;100161.44;12252802;19;20006;-83
2022/12/23 15:58:41;;;;;;;6.78;3.70;;;11.70;67.10;;;10.40;67.06;100151.59;12249537;19;20038;-83
2022/12/23 16:02:43;;;;;;;4.90;2.97;;;11.60;66.90;;;10.28;67.26;100152.34;12247241;19;20046;-83
2022/12/23 16:06:48;;;;;;;3.35;3.05;;;11.60;66.80;;;10.20;67.12;100143.19;12249538;19;20014;-83
2022/12/23 16:11:15;;;;;;;3.53;3.15;;;11.50;66.70;;;10.23;67.15;100164.81;12249315;19;20015;-83
2022/12/23 16:15:30;;;;;;;3.88;3.35;;;11.40;66.90;;;10.19;67.13;100180.66;12248731;19;20010;-83
2022/12/23 16:19:46;;;;;;;6.35;4.60;;;11.30;66.90;;;10.12;66.99;100174.16;12250415;19;20015;-83
2022/12/23 16:23:51;;;;;;;6.85;4.35;;;11.30;67.00;;;10.06;67.30;100168.50;12250840;19;20066;-83
2022/12/23 16:28:07;;;;;;;5.32;4.22;;;11.20;66.70;;;9.97;67.01;100159.47;12246379;19;20521;-83
2022/12/23 16:32:17;;;;;;;6.13;3.92;;;11.20;66.40;;;9.97;66.85;100175.13;12249265;19;20011;-83
2022/12/23 16:36:35;;;;;;;5.53;3.63;;;11.10;66.50;;;9.85;67.00;100163.66;12245560;19;20081;-84
2022/12/23 16:40:37;;;;;;;5.15;4.65;;;11.10;66.70;;;9.87;67.15;100166.19;12249670;19;20452;-84
2022/12/23 16:44:39;;;;;;;6.90;5.40;;;11.00;66.90;;;9.64;66.96;100138.88;12250531;19;20014;-83
2022/12/23 16:48:58;;;;;;;7.07;5.40;;;11.00;66.90;;;9.70;67.12;100162.00;12238367;19;20022;-83
2022/12/23 16:53:00;;;;;;;9.07;6.15;;;10.90;67.00;;;9.82;67.17;100168.22;12246084;19;20014;-84
2022/12/23 16:57:02;;;;;;;7.00;5.70;;;10.90;66.90;;;9.69;66.84;100150.75;12245969;19;20023;-84
2022/12/23 17:01:04;;;;;;;6.00;4.90;;;10.90;66.50;;;9.68;67.00;100156.88;12246677;19;20031;-83
2022/12/23 17:05:07;;;;;;;7.97;5.75;;;10.90;66.30;;;9.58;67.05;100139.25;12249490;19;20014;-83
2022/12/23 17:09:10;;;;;;;7.25;5.47;;;10.80;66.40;;;9.67;67.00;100152.59;12243808;19;20050;-84
2022/12/23 17:13:17;;;;;;;6.90;5.93;;;10.80;66.50;;;9.41;66.93;100109.84;12247219;19;20011;-83
2022/12/23 17:17:20;;;;;;;8.18;6.25;;;10.80;66.30;;;9.52;66.68;100128.28;12246243;19;20022;-84
2022/12/23 17:21:33;;;;;;;6.70;5.53;;;10.80;66.20;;;9.44;66.92;100117.47;12244127;19;20018;-83
2022/12/23 17:25:35;;;;;;;4.78;4.22;;;10.70;66.20;;;9.50;66.90;100139.72;12246363;19;20087;-84
2022/12/23 17:29:37;;;;;;;5.45;3.90;;;10.60;66.40;;;9.43;67.03;100125.41;12244990;19;20464;-84
2022/12/23 17:33:39;;;;;;;4.60;3.95;;;10.70;66.60;;;9.47;66.96;100129.50;12245603;19;20018;-84
2022/12/23 17:37:40;;;;;;;3.20;2.90;;;10.60;66.60;;;9.15;66.63;100067.13;12243782;19;20022;-83